sensor_id;sensor_type;location;lat;lon;timestamp;pressure;altitude;pressure_sealevel;temperature;humidity
6853;BME280;3465;42.144;24.722;2023-05-03T00:01:38;146195.78;;;13.12;65.08
6853;BME280;3465;42.144;24.722;2023-05-03T00:04:03;146185.72;;;13.08;65.28
6853;BME280;3465;42.144;24.722;2023-05-03T00:06:29;146136.72;;;12.88;65.49
6853;BME280;3465;42.144;24.722;2023-05-03T00:08:55;146170.69;;;13.02;65.27
6853;BME280;3465;42.144;24.722;2023-05-03T00:11:21;146130.47;;;12.85;65.06
6853;BME280;3465;42.144;24.722;2023-05-03T00:13:46;146150.56;;;12.93;65.45
6853;BME280;3465;42.144;24.722;2023-05-03T00:16:12;146115.44;;;12.79;66.54
6853;BME280;3465;42.144;24.722;2023-05-03T00:18:37;146067.75;;;12.60;66.55
6853;BME280;3465;42.144;24.722;2023-05-03T00:21:03;146065.22;;;12.59;66.92
6853;BME280;3465;42.144;24.722;2023-05-03T00:23:28;146076.50;;;12.64;66.87
6853;BME280;3465;42.144;24.722;2023-05-03T00:25:55;146072.75;;;12.62;67.18
6853;BME280;3465;42.144;24.722;2023-05-03T00:28:21;146063.94;;;12.59;66.96
6853;BME280;3465;42.144;24.722;2023-05-03T00:30:47;146130.47;;;12.85;66.52
6853;BME280;3465;42.144;24.722;2023-05-03T00:33:13;146166.88;;;13.00;66.31
6853;BME280;3465;42.144;24.722;2023-05-03T00:35:38;146171.94;;;13.02;65.90
6853;BME280;3465;42.144;24.722;2023-05-03T00:38:03;146138.00;;;12.88;66.59
6853;BME280;3465;42.144;24.722;2023-05-03T00:40:29;146116.66;;;12.80;66.84
6853;BME280;3465;42.144;24.722;2023-05-03T00:42:54;146081.53;;;12.66;67.62
6853;BME280;3465;42.144;24.722;2023-05-03T00:45:20;146074.00;;;12.63;68.47
6853;BME280;3465;42.144;24.722;2023-05-03T00:47:45;146089.06;;;12.69;68.28
6853;BME280;3465;42.144;24.722;2023-05-03T00:50:11;146099.13;;;12.73;68.37
6853;BME280;3465;42.144;24.722;2023-05-03T00:52:37;146096.56;;;12.72;68.42
6853;BME280;3465;42.144;24.722;2023-05-03T00:55:04;146089.06;;;12.69;68.34
6853;BME280;3465;42.144;24.722;2023-05-03T00:57:29;146041.38;;;12.50;69.24
6853;BME280;3465;42.144;24.722;2023-05-03T00:59:58;146072.75;;;12.62;69.20
6853;BME280;3465;42.144;24.722;2023-05-03T01:02:24;146101.59;;;12.74;68.52
6853;BME280;3465;42.144;24.722;2023-05-03T01:04:51;146077.78;;;12.64;68.66
6853;BME280;3465;42.144;24.722;2023-05-03T01:10:01;146080.25;;;12.65;69.79
6853;BME280;3465;42.144;24.722;2023-05-03T01:18:05;146015.06;;;12.39;71.58
6853;BME280;3465;42.144;24.722;2023-05-03T01:20:33;146017.56;;;12.40;71.00
6853;BME280;3465;42.144;24.722;2023-05-03T01:23:06;146008.78;;;12.37;72.43
6853;BME280;3465;42.144;24.722;2023-05-03T01:25:34;146017.56;;;12.40;71.32
6853;BME280;3465;42.144;24.722;2023-05-03T01:28:00;146005.00;;;12.35;72.87
6853;BME280;3465;42.144;24.722;2023-05-03T01:30:26;146025.09;;;12.43;73.61
6853;BME280;3465;42.144;24.722;2023-05-03T01:33:03;145986.22;;;12.28;72.53
6853;BME280;3465;42.144;24.722;2023-05-03T01:35:38;146063.94;;;12.59;72.36
6853;BME280;3465;42.144;24.722;2023-05-03T01:38:05;146043.88;;;12.51;73.02
6853;BME280;3465;42.144;24.722;2023-05-03T01:40:35;146021.31;;;12.42;71.54
6853;BME280;3465;42.144;24.722;2023-05-03T01:43:03;145924.75;;;12.03;72.45
6853;BME280;3465;42.144;24.722;2023-05-03T01:45:29;145957.34;;;12.16;71.62
6853;BME280;3465;42.144;24.722;2023-05-03T01:47:55;145947.34;;;12.12;72.11
6853;BME280;3465;42.144;24.722;2023-05-03T01:50:21;145944.81;;;12.11;72.09
6853;BME280;3465;42.144;24.722;2023-05-03T01:52:48;145941.06;;;12.10;71.69
6853;BME280;3465;42.144;24.722;2023-05-03T01:55:16;145927.28;;;12.04;71.92
6853;BME280;3465;42.144;24.722;2023-05-03T01:57:42;145924.75;;;12.03;72.31
6853;BME280;3465;42.144;24.722;2023-05-03T02:00:08;145858.31;;;11.77;72.02
6853;BME280;3465;42.144;24.722;2023-05-03T02:02:34;145904.69;;;11.95;74.31
6853;BME280;3465;42.144;24.722;2023-05-03T02:04:59;145887.16;;;11.88;74.65
6853;BME280;3465;42.144;24.722;2023-05-03T02:07:25;145929.78;;;12.05;74.46
6853;BME280;3465;42.144;24.722;2023-05-03T02:09:50;145904.69;;;11.95;76.28
6853;BME280;3465;42.144;24.722;2023-05-03T02:12:16;145956.09;;;12.16;75.44
6853;BME280;3465;42.144;24.722;2023-05-03T02:14:41;145944.81;;;12.11;76.01
6853;BME280;3465;42.144;24.722;2023-05-03T02:17:06;145939.78;;;12.09;74.29
6853;BME280;3465;42.144;24.722;2023-05-03T02:19:32;145953.59;;;12.15;74.82
6853;BME280;3465;42.144;24.722;2023-05-03T02:21:57;145942.31;;;12.10;73.97
6853;BME280;3465;42.144;24.722;2023-05-03T02:24:23;145926.03;;;12.04;75.49
6853;BME280;3465;42.144;24.722;2023-05-03T02:26:48;145902.19;;;11.94;74.32
6853;BME280;3465;42.144;24.722;2023-05-03T02:29:13;145900.94;;;11.94;75.07
6853;BME280;3465;42.144;24.722;2023-05-03T02:31:39;145902.19;;;11.94;74.53
6853;BME280;3465;42.144;24.722;2023-05-03T02:34:04;145919.72;;;12.01;74.56
6853;BME280;3465;42.144;24.722;2023-05-03T02:36:30;145895.91;;;11.92;72.10
6853;BME280;3465;42.144;24.722;2023-05-03T02:38:56;145902.19;;;11.94;74.02
6853;BME280;3465;42.144;24.722;2023-05-03T02:41:21;145897.16;;;11.92;73.88
6853;BME280;3465;42.144;24.722;2023-05-03T02:43:46;145913.47;;;11.99;74.53
6853;BME280;3465;42.144;24.722;2023-05-03T02:46:12;145907.22;;;11.96;73.92
6853;BME280;3465;42.144;24.722;2023-05-03T02:48:37;145929.78;;;12.05;73.77
6853;BME280;3465;42.144;24.722;2023-05-03T02:51:04;145907.22;;;11.96;73.94
6853;BME280;3465;42.144;24.722;2023-05-03T02:53:29;145865.84;;;11.80;74.92
6853;BME280;3465;42.144;24.722;2023-05-03T02:55:55;145879.59;;;11.85;74.97
6853;BME280;3465;42.144;24.722;2023-05-03T02:58:21;145869.59;;;11.81;74.97
6853;BME280;3465;42.144;24.722;2023-05-03T03:00:46;145859.53;;;11.77;75.70
6853;BME280;3465;42.144;24.722;2023-05-03T03:03:12;145847.06;;;11.72;75.42
6853;BME280;3465;42.144;24.722;2023-05-03T03:05:37;145829.47;;;11.65;75.29
6853;BME280;3465;42.144;24.722;2023-05-03T03:08:03;145834.50;;;11.67;76.34
6853;BME280;3465;42.144;24.722;2023-05-03T03:10:28;145746.72;;;11.32;77.47
6853;BME280;3465;42.144;24.722;2023-05-03T03:12:53;145780.53;;;11.45;78.58
6853;BME280;3465;42.144;24.722;2023-05-03T03:15:19;145769.28;;;11.41;78.63
6853;BME280;3465;42.144;24.722;2023-05-03T03:17:44;145779.28;;;11.45;79.50
6853;BME280;3465;42.144;24.722;2023-05-03T03:20:10;145783.03;;;11.46;78.83
6853;BME280;3465;42.144;24.722;2023-05-03T03:22:36;145803.09;;;11.54;79.60
6853;BME280;3465;42.144;24.722;2023-05-03T03:25:03;145760.50;;;11.37;80.28
6853;BME280;3465;42.144;24.722;2023-05-03T03:27:29;145716.63;;;11.20;81.60
6853;BME280;3465;42.144;24.722;2023-05-03T03:29:54;145735.41;;;11.27;82.23
6853;BME280;3465;42.144;24.722;2023-05-03T03:32:20;145701.63;;;11.14;82.57
6853;BME280;3465;42.144;24.722;2023-05-03T03:34:46;145719.13;;;11.21;82.82
6853;BME280;3465;42.144;24.722;2023-05-03T03:37:11;145715.38;;;11.19;83.21
6853;BME280;3465;42.144;24.722;2023-05-03T03:39:36;145721.66;;;11.22;83.26
6853;BME280;3465;42.144;24.722;2023-05-03T03:42:05;145659.00;;;10.97;83.67
6853;BME280;3465;42.144;24.722;2023-05-03T03:44:30;145705.38;;;11.15;84.29
6853;BME280;3465;42.144;24.722;2023-05-03T03:46:55;145716.63;;;11.20;84.96
6853;BME280;3465;42.144;24.722;2023-05-03T03:49:21;145706.63;;;11.16;84.92
6853;BME280;3465;42.144;24.722;2023-05-03T03:51:46;145676.53;;;11.04;85.93
6853;BME280;3465;42.144;24.722;2023-05-03T03:54:12;145669.03;;;11.01;86.76
6853;BME280;3465;42.144;24.722;2023-05-03T03:56:38;145661.53;;;10.98;87.36
6853;BME280;3465;42.144;24.722;2023-05-03T03:59:03;145654.00;;;10.95;88.51
6853;BME280;3465;42.144;24.722;2023-05-03T04:01:29;145632.72;;;10.86;88.92
6853;BME280;3465;42.144;24.722;2023-05-03T04:03:54;145665.28;;;10.99;89.78
6853;BME280;3465;42.144;24.722;2023-05-03T04:06:20;145664.00;;;10.99;89.72
6853;BME280;3465;42.144;24.722;2023-05-03T04:08:45;145656.50;;;10.96;89.64
6853;BME280;3465;42.144;24.722;2023-05-03T04:11:11;145667.78;;;11.00;89.67
6853;BME280;3465;42.144;24.722;2023-05-03T04:13:36;145682.78;;;11.06;90.81
6853;BME280;3465;42.144;24.722;2023-05-03T04:16:02;145676.53;;;11.04;91.66
6853;BME280;3465;42.144;24.722;2023-05-03T04:18:28;145664.00;;;10.99;92.46
6853;BME280;3465;42.144;24.722;2023-05-03T04:20:53;145691.56;;;11.10;93.12
6853;BME280;3465;42.144;24.722;2023-05-03T04:23:18;145680.31;;;11.05;94.56
6853;BME280;3465;42.144;24.722;2023-05-03T04:25:44;145690.34;;;11.09;95.92
6853;BME280;3465;42.144;24.722;2023-05-03T04:28:13;145666.53;;;11.00;97.73
6853;BME280;3465;42.144;24.722;2023-05-03T04:30:39;145686.59;;;11.08;98.44
6853;BME280;3465;42.144;24.722;2023-05-03T04:33:07;145720.41;;;11.21;99.48
6853;BME280;3465;42.144;24.722;2023-05-03T04:35:33;145731.66;;;11.26;98.71
6853;BME280;3465;42.144;24.722;2023-05-03T04:37:58;145669.03;;;11.01;99.82
6853;BME280;3465;42.144;24.722;2023-05-03T04:40:24;145689.06;;;11.09;100.00
6853;BME280;3465;42.144;24.722;2023-05-03T04:42:49;145660.25;;;10.97;100.00
6853;BME280;3465;42.144;24.722;2023-05-03T04:45:14;145685.31;;;11.07;100.00
6853;BME280;3465;42.144;24.722;2023-05-03T04:47:40;145670.31;;;11.01;100.00
6853;BME280;3465;42.144;24.722;2023-05-03T04:50:06;145651.47;;;10.94;100.00
6853;BME280;3465;42.144;24.722;2023-05-03T04:52:35;145680.31;;;11.05;100.00
6853;BME280;3465;42.144;24.722;2023-05-03T04:55:00;145647.72;;;10.92;100.00
6853;BME280;3465;42.144;24.722;2023-05-03T04:57:26;145530.03;;;10.45;100.00
6853;BME280;3465;42.144;24.722;2023-05-03T04:59:51;145611.41;;;10.78;100.00
6853;BME280;3465;42.144;24.722;2023-05-03T05:02:18;145590.13;;;10.69;100.00
6853;BME280;3465;42.144;24.722;2023-05-03T05:04:43;145623.94;;;10.83;100.00
6853;BME280;3465;42.144;24.722;2023-05-03T05:07:11;145536.28;;;10.48;100.00
6853;BME280;3465;42.144;24.722;2023-05-03T05:09:36;145565.06;;;10.59;100.00
6853;BME280;3465;42.144;24.722;2023-05-03T05:12:02;145557.56;;;10.56;100.00
6853;BME280;3465;42.144;24.722;2023-05-03T05:14:30;145535.00;;;10.47;100.00
6853;BME280;3465;42.144;24.722;2023-05-03T05:16:55;145577.59;;;10.64;100.00
6853;BME280;3465;42.144;24.722;2023-05-03T05:19:21;145565.06;;;10.59;100.00
6853;BME280;3465;42.144;24.722;2023-05-03T05:21:47;145595.09;;;10.71;100.00
6853;BME280;3465;42.144;24.722;2023-05-03T05:24:12;145571.31;;;10.62;100.00
6853;BME280;3465;42.144;24.722;2023-05-03T05:26:38;145555.03;;;10.55;100.00
6853;BME280;3465;42.144;24.722;2023-05-03T05:29:03;145601.41;;;10.74;100.00
6853;BME280;3465;42.144;24.722;2023-05-03T05:31:30;145561.31;;;10.58;100.00
6853;BME280;3465;42.144;24.722;2023-05-03T05:33:55;145578.81;;;10.65;100.00
6853;BME280;3465;42.144;24.722;2023-05-03T05:36:21;145557.56;;;10.56;100.00
6853;BME280;3465;42.144;24.722;2023-05-03T05:38:46;145562.53;;;10.58;100.00
6853;BME280;3465;42.144;24.722;2023-05-03T05:41:11;145576.34;;;10.64;100.00
6853;BME280;3465;42.144;24.722;2023-05-03T05:43:37;145601.41;;;10.74;100.00
6853;BME280;3465;42.144;24.722;2023-05-03T05:46:02;145622.66;;;10.82;100.00
6853;BME280;3465;42.144;24.722;2023-05-03T05:48:28;145631.44;;;10.86;100.00
6853;BME280;3465;42.144;24.722;2023-05-03T05:50:53;145659.00;;;10.97;100.00
6853;BME280;3465;42.144;24.722;2023-05-03T05:53:18;145605.16;;;10.75;100.00
6853;BME280;3465;42.144;24.722;2023-05-03T05:55:44;145672.78;;;11.02;100.00
6853;BME280;3465;42.144;24.722;2023-05-03T05:58:09;145659.00;;;10.97;100.00
6853;BME280;3465;42.144;24.722;2023-05-03T06:00:37;145661.53;;;10.98;100.00
6853;BME280;3465;42.144;24.722;2023-05-03T06:03:02;145704.09;;;11.15;100.00
6853;BME280;3465;42.144;24.722;2023-05-03T06:05:27;145674.06;;;11.03;100.00
6853;BME280;3465;42.144;24.722;2023-05-03T06:07:53;145710.41;;;11.17;100.00
6853;BME280;3465;42.144;24.722;2023-05-03T06:10:18;145744.19;;;11.31;100.00
6853;BME280;3465;42.144;24.722;2023-05-03T06:12:44;145809.38;;;11.57;100.00
6853;BME280;3465;42.144;24.722;2023-05-03T06:15:09;145806.91;;;11.56;100.00
6853;BME280;3465;42.144;24.722;2023-05-03T06:17:35;145827.00;;;11.64;100.00
6853;BME280;3465;42.144;24.722;2023-05-03T06:20:01;145770.53;;;11.41;100.00
6853;BME280;3465;42.144;24.722;2023-05-03T06:22:26;145771.75;;;11.42;100.00
6853;BME280;3465;42.144;24.722;2023-05-03T06:24:52;145717.91;;;11.20;100.00
6853;BME280;3465;42.144;24.722;2023-05-03T06:27:17;145739.16;;;11.29;100.00
6853;BME280;3465;42.144;24.722;2023-05-03T06:29:43;145795.56;;;11.51;100.00
6853;BME280;3465;42.144;24.722;2023-05-03T06:32:09;145887.16;;;11.88;100.00
6853;BME280;3465;42.144;24.722;2023-05-03T06:34:35;145877.13;;;11.84;100.00
6853;BME280;3465;42.144;24.722;2023-05-03T06:37:02;145921.00;;;12.02;100.00
6853;BME280;3465;42.144;24.722;2023-05-03T06:39:27;145907.22;;;11.96;100.00
6853;BME280;3465;42.144;24.722;2023-05-03T06:41:53;145902.19;;;11.94;100.00
6853;BME280;3465;42.144;24.722;2023-05-03T06:44:18;145919.72;;;12.01;100.00
6853;BME280;3465;42.144;24.722;2023-05-03T06:46:44;145898.44;;;11.93;100.00
6853;BME280;3465;42.144;24.722;2023-05-03T06:49:09;145948.56;;;12.13;100.00
6853;BME280;3465;42.144;24.722;2023-05-03T06:51:35;146072.75;;;12.62;100.00
6853;BME280;3465;42.144;24.722;2023-05-03T06:54:01;146155.59;;;12.95;100.00
6853;BME280;3465;42.144;24.722;2023-05-03T06:56:34;146193.25;;;13.11;100.00
6853;BME280;3465;42.144;24.722;2023-05-03T06:59:03;146184.44;;;13.07;100.00
6853;BME280;3465;42.144;24.722;2023-05-03T07:01:32;146296.22;;;13.52;100.00
6853;BME280;3465;42.144;24.722;2023-05-03T07:03:58;146444.41;;;14.11;100.00
6853;BME280;3465;42.144;24.722;2023-05-03T07:06:23;146492.19;;;14.30;100.00
6853;BME280;3465;42.144;24.722;2023-05-03T07:08:52;146763.69;;;15.38;99.01
6853;BME280;3465;42.144;24.722;2023-05-03T07:11:19;146883.22;;;15.86;95.37
6853;BME280;3465;42.144;24.722;2023-05-03T07:13:49;146876.88;;;15.84;92.53
6853;BME280;3465;42.144;24.722;2023-05-03T07:16:15;147012.81;;;16.38;91.82
6853;BME280;3465;42.144;24.722;2023-05-03T07:18:40;147044.31;;;16.50;90.28
6853;BME280;3465;42.144;24.722;2023-05-03T07:21:06;146893.25;;;15.90;90.05
6853;BME280;3465;42.144;24.722;2023-05-03T07:23:31;146795.16;;;15.51;90.87
6853;BME280;3465;42.144;24.722;2023-05-03T07:25:56;146764.97;;;15.39;90.98
6853;BME280;3465;42.144;24.722;2023-05-03T07:28:23;146753.59;;;15.34;90.25
6853;BME280;3465;42.144;24.722;2023-05-03T07:30:49;146849.22;;;15.72;90.46
6853;BME280;3465;42.144;24.722;2023-05-03T07:33:15;147041.78;;;16.49;85.97
6853;BME280;3465;42.144;24.722;2023-05-03T07:35:40;147298.72;;;17.52;80.57
6853;BME280;3465;42.144;24.722;2023-05-03T07:38:06;147496.56;;;18.30;75.25
6853;BME280;3465;42.144;24.722;2023-05-03T07:40:31;147752.63;;;19.32;72.43
6853;BME280;3465;42.144;24.722;2023-05-03T07:42:58;147756.41;;;19.34;71.59
6853;BME280;3465;42.144;24.722;2023-05-03T07:45:24;147615.09;;;18.78;74.32
6853;BME280;3465;42.144;24.722;2023-05-03T07:47:50;147483.97;;;18.25;75.18
6853;BME280;3465;42.144;24.722;2023-05-03T07:50:15;147670.56;;;19.00;71.65
6853;BME280;3465;42.144;24.722;2023-05-03T07:52:41;147849.78;;;19.71;68.32
6853;BME280;3465;42.144;24.722;2023-05-03T07:55:07;147867.47;;;19.78;67.93
6853;BME280;3465;42.144;24.722;2023-05-03T07:57:33;147851.06;;;19.71;69.01
6853;BME280;3465;42.144;24.722;2023-05-03T07:59:58;147882.59;;;19.84;68.70
6853;BME280;3465;42.144;24.722;2023-05-03T08:02:24;147738.72;;;19.27;68.30
6853;BME280;3465;42.144;24.722;2023-05-03T08:04:50;147651.66;;;18.92;70.61
6853;BME280;3465;42.144;24.722;2023-05-03T08:07:15;147468.78;;;18.19;73.45
6853;BME280;3465;42.144;24.722;2023-05-03T08:09:44;147400.75;;;17.92;73.99
6853;BME280;3465;42.144;24.722;2023-05-03T08:12:09;147339.03;;;17.68;73.40
6853;BME280;3465;42.144;24.722;2023-05-03T08:14:34;147407.06;;;17.95;71.36
6853;BME280;3465;42.144;24.722;2023-05-03T08:17:01;147291.13;;;17.49;76.18
6853;BME280;3465;42.144;24.722;2023-05-03T08:19:29;147317.59;;;17.59;76.38
6853;BME280;3465;42.144;24.722;2023-05-03T08:21:55;147554.56;;;18.53;74.54
6853;BME280;3465;42.144;24.722;2023-05-03T08:24:20;147531.91;;;18.44;71.94
6853;BME280;3465;42.144;24.722;2023-05-03T08:26:46;147569.69;;;18.60;69.58
6853;BME280;3465;42.144;24.722;2023-05-03T08:29:13;147832.09;;;19.64;68.61
6853;BME280;3465;42.144;24.722;2023-05-03T08:31:38;147824.53;;;19.61;64.96
6853;BME280;3465;42.144;24.722;2023-05-03T08:34:04;147979.84;;;20.23;62.30
6853;BME280;3465;42.144;24.722;2023-05-03T08:36:31;147854.84;;;19.73;63.59
6853;BME280;3465;42.144;24.722;2023-05-03T08:38:57;147876.25;;;19.81;63.24
6853;BME280;3465;42.144;24.722;2023-05-03T08:41:29;148251.44;;;21.31;60.48
6853;BME280;3465;42.144;24.722;2023-05-03T08:43:55;148557.44;;;22.52;52.67
6853;BME280;3465;42.144;24.722;2023-05-03T08:46:22;148543.44;;;22.46;52.73
6853;BME280;3465;42.144;24.722;2023-05-03T08:48:51;149106.88;;;24.70;49.09
6853;BME280;3465;42.144;24.722;2023-05-03T08:51:17;149560.81;;;26.49;43.07
6853;BME280;3465;42.144;24.722;2023-05-03T08:53:43;149714.38;;;27.10;39.41
6853;BME280;3465;42.144;24.722;2023-05-03T08:56:09;149203.19;;;25.08;41.86
6853;BME280;3465;42.144;24.722;2023-05-03T08:58:37;149256.44;;;25.29;42.88
6853;BME280;3465;42.144;24.722;2023-05-03T09:01:06;149384.47;;;25.80;41.99
6853;BME280;3465;42.144;24.722;2023-05-03T09:03:33;149568.44;;;26.52;40.83
6853;BME280;3465;42.144;24.722;2023-05-03T09:05:59;149880.69;;;27.76;38.46
6853;BME280;3465;42.144;24.722;2023-05-03T09:08:28;150064.88;;;28.49;37.06
6853;BME280;3465;42.144;24.722;2023-05-03T09:10:54;149812.16;;;27.49;38.38
6853;BME280;3465;42.144;24.722;2023-05-03T09:13:19;149403.47;;;25.87;40.23
6853;BME280;3465;42.144;24.722;2023-05-03T09:15:54;148892.78;;;23.85;45.17
6853;BME280;3465;42.144;24.722;2023-05-03T09:18:21;148868.72;;;23.75;46.09
6853;BME280;3465;42.144;24.722;2023-05-03T09:20:48;148504.25;;;22.31;48.52
6853;BME280;3465;42.144;24.722;2023-05-03T09:25:52;148446.13;;;22.08;52.56
6853;BME280;3465;42.144;24.722;2023-05-03T09:28:18;148231.22;;;21.22;53.84
6853;BME280;3465;42.144;24.722;2023-05-03T09:30:45;148204.66;;;21.12;53.64
6853;BME280;3465;42.144;24.722;2023-05-03T09:33:12;147933.06;;;20.04;57.84
6853;BME280;3465;42.144;24.722;2023-05-03T09:35:57;147690.75;;;19.08;64.10
6853;BME280;3465;42.144;24.722;2023-05-03T09:38:31;147577.31;;;18.63;66.73
6853;BME280;3465;42.144;24.722;2023-05-03T09:40:57;147512.91;;;18.37;68.79
6853;BME280;3465;42.144;24.722;2023-05-03T09:43:23;147552.06;;;18.52;68.11
6853;BME280;3465;42.144;24.722;2023-05-03T09:45:48;147511.69;;;18.36;68.62
6853;BME280;3465;42.144;24.722;2023-05-03T09:48:14;147813.19;;;19.56;65.53
6853;BME280;3465;42.144;24.722;2023-05-03T09:50:41;147915.41;;;19.97;62.43
6853;BME280;3465;42.144;24.722;2023-05-03T09:53:07;147900.28;;;19.91;60.95
6853;BME280;3465;42.144;24.722;2023-05-03T09:55:38;148237.50;;;21.25;60.34
6853;BME280;3465;42.144;24.722;2023-05-03T09:58:04;148403.13;;;21.91;56.28
6853;BME280;3465;42.144;24.722;2023-05-03T10:03:00;148484.03;;;22.23;54.04
6853;BME280;3465;42.144;24.722;2023-05-03T10:05:30;148585.25;;;22.63;53.11
6853;BME280;3465;42.144;24.722;2023-05-03T10:07:59;148519.41;;;22.37;54.12
6853;BME280;3465;42.144;24.722;2023-05-03T10:10:27;148318.38;;;21.57;54.86
6853;BME280;3465;42.144;24.722;2023-05-03T10:12:56;148195.81;;;21.08;57.40
6853;BME280;3465;42.144;24.722;2023-05-03T10:15:24;147938.13;;;20.06;60.87
6853;BME280;3465;42.144;24.722;2023-05-03T10:17:52;147794.28;;;19.49;63.70
6853;BME280;3465;42.144;24.722;2023-05-03T10:20:36;147689.53;;;19.07;65.75
6853;BME280;3465;42.144;24.722;2023-05-03T10:25:30;147644.09;;;18.89;67.25
6853;BME280;3465;42.144;24.722;2023-05-03T10:28:05;147632.78;;;18.85;67.28
6853;BME280;3465;42.144;24.722;2023-05-03T10:30:38;147598.69;;;18.71;68.73
6853;BME280;3465;42.144;24.722;2023-05-03T10:33:28;147635.28;;;18.86;71.01
6853;BME280;3465;42.144;24.722;2023-05-03T10:35:54;147699.59;;;19.11;69.06
6853;BME280;3465;42.144;24.722;2023-05-03T10:38:25;147771.53;;;19.40;67.23
6853;BME280;3465;42.144;24.722;2023-05-03T10:40:51;147851.06;;;19.71;66.33
6853;BME280;3465;42.144;24.722;2023-05-03T10:45:59;148002.53;;;20.32;63.98
6853;BME280;3465;42.144;24.722;2023-05-03T10:48:25;148027.81;;;20.42;62.62
6853;BME280;3465;42.144;24.722;2023-05-03T10:50:53;147718.53;;;19.19;65.85
6853;BME280;3465;42.144;24.722;2023-05-03T10:56:12;147659.22;;;18.95;68.33
6853;BME280;3465;42.144;24.722;2023-05-03T11:01:06;147612.59;;;18.77;68.46
6853;BME280;3465;42.144;24.722;2023-05-03T11:03:42;147589.88;;;18.68;70.67
6853;BME280;3465;42.144;24.722;2023-05-03T11:06:26;147514.19;;;18.37;71.71
6853;BME280;3465;42.144;24.722;2023-05-03T11:08:51;147478.91;;;18.23;72.68
6853;BME280;3465;42.144;24.722;2023-05-03T11:11:17;147428.47;;;18.03;74.05
6853;BME280;3465;42.144;24.722;2023-05-03T11:13:42;147418.41;;;17.99;75.02
6853;BME280;3465;42.144;24.722;2023-05-03T11:16:08;147316.34;;;17.59;76.72
6853;BME280;3465;42.144;24.722;2023-05-03T11:18:35;147221.84;;;17.21;80.12
6853;BME280;3465;42.144;24.722;2023-05-03T11:21:00;147287.34;;;17.47;79.43
6853;BME280;3465;42.144;24.722;2023-05-03T11:23:29;147257.09;;;17.35;79.97
6853;BME280;3465;42.144;24.722;2023-05-03T11:25:55;147249.53;;;17.32;80.56
6853;BME280;3465;42.144;24.722;2023-05-03T11:28:22;147171.44;;;17.01;81.29
6853;BME280;3465;42.144;24.722;2023-05-03T11:30:48;147168.94;;;17.00;83.23
6853;BME280;3465;42.144;24.722;2023-05-03T11:33:15;147160.13;;;16.96;83.55
6853;BME280;3465;42.144;24.722;2023-05-03T11:35:40;147129.88;;;16.84;84.17
6853;BME280;3465;42.144;24.722;2023-05-03T11:38:06;147126.13;;;16.83;85.72
6853;BME280;3465;42.144;24.722;2023-05-03T11:40:32;147199.16;;;17.12;85.33
6853;BME280;3465;42.144;24.722;2023-05-03T11:42:58;147129.88;;;16.84;86.37
6853;BME280;3465;42.144;24.722;2023-05-03T11:45:42;147141.25;;;16.89;86.54
6853;BME280;3465;42.144;24.722;2023-05-03T11:48:10;147095.91;;;16.71;86.27
6853;BME280;3465;42.144;24.722;2023-05-03T11:50:43;147129.88;;;16.84;85.65
6853;BME280;3465;42.144;24.722;2023-05-03T11:53:11;147158.84;;;16.96;85.22
6853;BME280;3465;42.144;24.722;2023-05-03T11:55:42;147127.38;;;16.83;86.88
6853;BME280;3465;42.144;24.722;2023-05-03T11:58:18;147161.41;;;16.97;85.04
6853;BME280;3465;42.144;24.722;2023-05-03T12:00:55;147066.97;;;16.59;85.31
6853;BME280;3465;42.144;24.722;2023-05-03T12:05:48;147107.25;;;16.75;85.01
6853;BME280;3465;42.144;24.722;2023-05-03T12:08:15;147133.72;;;16.86;84.19
6853;BME280;3465;42.144;24.722;2023-05-03T12:10:43;147184.03;;;17.06;83.20
6853;BME280;3465;42.144;24.722;2023-05-03T12:13:08;147181.53;;;17.05;80.67
6853;BME280;3465;42.144;24.722;2023-05-03T12:15:35;147167.69;;;16.99;81.53
6853;BME280;3465;42.144;24.722;2023-05-03T12:18:10;147122.34;;;16.81;82.34
6853;BME280;3465;42.144;24.722;2023-05-03T12:20:37;147131.16;;;16.85;82.03
6853;BME280;3465;42.144;24.722;2023-05-03T12:23:07;147136.22;;;16.87;81.78
6853;BME280;3465;42.144;24.722;2023-05-03T12:25:33;147098.41;;;16.72;83.21
6853;BME280;3465;42.144;24.722;2023-05-03T12:28:02;147080.81;;;16.65;nan
6853;BME280;3465;42.144;24.722;2023-05-03T12:30:28;147055.63;;;16.55;85.20
6853;BME280;3465;42.144;24.722;2023-05-03T12:32:53;147116.06;;;16.79;83.43
6853;BME280;3465;42.144;24.722;2023-05-03T12:35:20;147097.19;;;16.71;83.31
6853;BME280;3465;42.144;24.722;2023-05-03T12:37:47;147075.78;;;16.63;84.10
6853;BME280;3465;42.144;24.722;2023-05-03T12:40:13;147046.81;;;16.51;83.63
6853;BME280;3465;42.144;24.722;2023-05-03T12:42:40;147045.53;;;16.51;83.47
6853;BME280;3465;42.144;24.722;2023-05-03T12:45:06;147056.91;;;16.55;82.54
6853;BME280;3465;42.144;24.722;2023-05-03T12:47:32;147077.06;;;16.63;81.61
6853;BME280;3465;42.144;24.722;2023-05-03T12:49:58;147022.88;;;16.42;81.81
6853;BME280;3465;42.144;24.722;2023-05-03T12:52:24;147138.69;;;16.88;80.63
6853;BME280;3465;42.144;24.722;2023-05-03T12:54:51;147182.78;;;17.05;79.40
6853;BME280;3465;42.144;24.722;2023-05-03T12:57:16;147161.41;;;16.97;79.42
6853;BME280;3465;42.144;24.722;2023-05-03T12:59:42;147161.41;;;16.97;79.89
6853;BME280;3465;42.144;24.722;2023-05-03T13:02:09;147190.31;;;17.08;78.35
6853;BME280;3465;42.144;24.722;2023-05-03T13:04:34;147189.09;;;17.08;79.16
6853;BME280;3465;42.144;24.722;2023-05-03T13:07:00;147108.53;;;16.76;78.57
6853;BME280;3465;42.144;24.722;2023-05-03T13:09:25;147092.16;;;16.69;79.17
6853;BME280;3465;42.144;24.722;2023-05-03T13:11:51;147030.44;;;16.45;80.63
6853;BME280;3465;42.144;24.722;2023-05-03T13:14:17;147064.47;;;16.58;81.53
6853;BME280;3465;42.144;24.722;2023-05-03T13:16:43;147112.28;;;16.77;83.69
6853;BME280;3465;42.144;24.722;2023-05-03T13:19:10;147133.72;;;16.86;83.06
6853;BME280;3465;42.144;24.722;2023-05-03T13:21:35;147160.13;;;16.96;83.22